Current Conditions
Light Rain
Showers



Pressure
1005.92 (hPa) - 29.7 (inHG)
Visibility

7.0 (km) - 4.3 (miles)
Temperature
3  °C
Temperature
1  °C
Dewpoint
87  %
 Humidity
Wind Speed
8.0  m/s
18  mph
29  km/h
16  kts
Wind Direction
N
45°
E
90°
135°
S
180°
225°
W
270°
315°
 230°

South West
Airport Data
EFHK
Helsinki Vantaa Airport
Metar :EFHK 101320Z 23016KT 7000 -SHRASN FEW007 BKN020CB 03/01 Q1006 BECMG 9999 BKN030
Sat 10th April 16:20 pm
Raw Metar Info
Raw METAR is the most common format in the world for the transmission of observational weather data. It is highly standardized through the International Civil Aviation Organization (ICAO), which allows it to be understood throughout most of the world.
API Info
Data Provided by
https://www.checkwx.com/weather/EFHK

Aviation Weather providing METAR, TAF, AIRMET, SIGMET and OUTLOOK Weather Reports
© Info
CSS/SVG/PHP scripts were developed by weather34.com for use in the weather34 template © 2015-2021

Guide Info provided by Metar-Wikipedia